Time;durP1;ratioP1;P1;durP2;ratioP2;P2;SDS_P1;SDS_P2;PMS_P1;PMS_P2;Temp;Humidity;BMP_temperature;BMP_pressure;BME280_temperature;BME280_humidity;BME280_pressure;Samples;Min_cycle;Max_cycle;Signal;HPM_P1;HPM_P2
2021/07/23 18:25:56;;;;;;;;;;;21.20;62.10;;;;;;5075811;28;19921;-93
2021/07/23 18:28:21;;;;;;;;;;;20.80;65.30;;;;;;5056956;28;19919;-93
2021/07/23 18:30:47;;;;;;;;;;;20.80;67.70;;;;;;5061528;28;19980;-93
2021/07/23 18:33:13;;;;;;;;;;;20.80;69.20;;;;;;5061565;28;19909;-94
2021/07/23 18:35:39;;;;;;;;;;;20.80;70.50;;;;;;5060985;28;19909;-95
2021/07/23 18:38:05;;;;;;;;;;;20.90;71.30;;;;;;5056021;28;19963;-94
2021/07/23 18:40:33;;;;;;;;;;;20.90;72.10;;;;;;5058808;28;19909;-95
2021/07/23 18:42:59;;;;;;;;;;;20.90;72.60;;;;;;5034380;28;20009;-95
2021/07/23 18:45:25;;;;;;;;;;;20.90;72.80;;;;;;5034141;28;19916;-94
2021/07/23 18:47:51;;;;;;;;;;;21.00;73.30;;;;;;5033361;28;19909;-94
2021/07/23 18:50:16;;;;;;;;;;;21.00;73.60;;;;;;5032880;28;19917;-95
2021/07/23 18:52:42;;;;;;;;;;;21.00;74.10;;;;;;5032757;28;19913;-94
2021/07/23 18:55:11;;;;;;;;;;;21.00;74.60;;;;;;5032972;28;20016;-95
2021/07/23 18:57:37;;;;;;;;;;;20.90;74.90;;;;;;5031859;28;19945;-94
2021/07/23 19:00:03;;;;;;;;;;;20.90;75.30;;;;;;5050578;28;19959;-96
2021/07/23 19:02:29;;;;;;;;;;;20.90;75.30;;;;;;5038454;28;19909;-96
2021/07/23 19:04:55;;;;;;;;;;;20.90;75.40;;;;;;5070436;28;19983;-93
2021/07/23 19:07:21;;;;;;;;;;;20.90;75.80;;;;;;5054023;28;19909;-95
2021/07/23 19:09:47;;;;;;;;;;;20.90;76.00;;;;;;5032727;28;20365;-95
2021/07/23 19:12:13;;;;;;;;;;;20.80;75.80;;;;;;5032196;28;19916;-95
2021/07/23 19:14:39;;;;;;;;;;;20.80;76.20;;;;;;5050294;28;19917;-94
2021/07/23 19:17:04;;;;;;;;;;;20.80;76.60;;;;;;5032845;28;19996;-93
2021/07/23 19:19:30;;;;;;;;;;;20.80;76.80;;;;;;5032901;28;20003;-93
2021/07/23 19:21:55;;;;;;;;;;;20.70;77.00;;;;;;5032786;28;19919;-94
2021/07/23 19:24:21;;;;;;;;;;;20.70;77.40;;;;;;5043392;28;19975;-95
2021/07/23 19:26:47;;;;;;;;;;;20.60;77.60;;;;;;5012981;28;20393;-93
2021/07/23 19:29:12;;;;;;;;;;;20.60;77.90;;;;;;5012907;28;19960;-93
2021/07/23 19:31:39;;;;;;;;;;;20.50;78.20;;;;;;5012942;28;19945;-94
2021/07/23 19:34:04;;;;;;;;;;;20.50;78.50;;;;;;5011478;28;19924;-94
2021/07/23 19:36:30;;;;;;;;;;;20.50;78.80;;;;;;4995591;28;19912;-95
2021/07/23 19:38:56;;;;;;;;;;;20.40;78.90;;;;;;4999432;28;19910;-95
2021/07/23 19:41:21;;;;;;;;;;;20.40;79.20;;;;;;4999770;28;19936;-95
2021/07/23 19:43:47;;;;;;;;;;;20.30;79.50;;;;;;4996983;28;19967;-95
2021/07/23 19:46:12;;;;;;;;;;;20.30;79.50;;;;;;4998358;28;19928;-94
2021/07/23 19:48:38;;;;;;;;;;;20.30;79.70;;;;;;4996314;28;20376;-92
2021/07/23 19:51:04;;;;;;;;;;;20.30;79.90;;;;;;5002451;28;19914;-96
2021/07/23 19:53:29;;;;;;;;;;;20.30;80.10;;;;;;5002241;28;19920;-95
2021/07/23 19:55:55;;;;;;;;;;;20.20;80.50;;;;;;4999529;28;20354;-94
2021/07/23 19:58:23;;;;;;;;;;;20.20;80.50;;;;;;5018343;28;19909;-94
2021/07/23 20:00:49;;;;;;;;;;;20.10;80.50;;;;;;5001579;28;19976;-92
2021/07/23 20:03:17;;;;;;;;;;;20.10;80.50;;;;;;5001173;28;19910;-95
2021/07/23 20:05:43;;;;;;;;;;;20.10;80.60;;;;;;5001118;28;19914;-94
